createdAt,value
2023-01-17T00:02:01.095Z,97539.19
2023-01-17T00:04:47.321Z,97540.03
2023-01-17T00:07:34.695Z,97543.44
2023-01-17T00:10:07.506Z,97543.41
2023-01-17T00:12:34.989Z,97541.66
2023-01-17T00:15:02.229Z,97533.06
2023-01-17T00:17:30.380Z,97523.59
2023-01-17T00:20:15.969Z,97519.31
2023-01-17T00:23:02.671Z,97518.41
2023-01-17T00:25:51.476Z,97519.19
2023-01-17T00:28:18.979Z,97521.69
2023-01-17T00:30:46.355Z,97513.94
2023-01-17T00:33:13.606Z,97513.94
2023-01-17T00:35:41.120Z,97509.63
2023-01-17T00:38:16.293Z,97510.44
2023-01-17T00:40:44.519Z,97501.78
2023-01-17T00:43:31.793Z,97498.31
2023-01-17T00:46:17.923Z,97494.88
2023-01-17T00:49:04.032Z,97500.84
2023-01-17T00:51:51.919Z,97493.16
2023-01-17T00:54:37.434Z,97485.44
2023-01-17T00:57:23.636Z,97480.31
2023-01-17T01:00:09.458Z,97473.44
2023-01-17T01:02:55.638Z,97464.88
2023-01-17T01:05:41.909Z,97460.63
2023-01-17T01:08:53.134Z,97447.78
2023-01-17T01:11:39.377Z,97443.53
2023-01-17T01:14:26.742Z,97433.38
2023-01-17T01:17:12.118Z,97428.28
2023-01-17T01:19:57.757Z,97423.97
2023-01-17T01:22:43.330Z,97423.13
2023-01-17T01:25:28.896Z,97420.56
2023-01-17T01:28:31.025Z,97415.44
2023-01-17T01:31:20.837Z,97418.03
2023-01-17T01:33:48.037Z,97406.06
2023-01-17T01:36:14.953Z,97406.88
2023-01-17T01:38:42.151Z,97397.47
2023-01-17T01:41:09.151Z,97394.88
2023-01-17T01:43:48.086Z,97393.13
2023-01-17T01:46:35.636Z,97373.34
2023-01-17T01:49:06.719Z,97375.06
2023-01-17T01:51:35.677Z,97362.19
2023-01-17T01:54:08.004Z,97353.66
2023-01-17T01:56:35.215Z,97344.22
2023-01-17T01:59:04.497Z,97333.09
2023-01-17T02:01:35.755Z,97336.56
2023-01-17T02:04:03.431Z,97321.97
2023-01-17T02:06:31.803Z,97312.63
2023-01-17T02:09:02.102Z,97316.94
2023-01-17T02:11:29.102Z,97307.47
2023-01-17T02:13:56.119Z,97297.97
2023-01-17T02:16:29.071Z,97286.84
2023-01-17T02:19:22.314Z,97285.25
2023-01-17T02:21:55.171Z,97277.44
2023-01-17T02:24:59.233Z,97279.22
2023-01-17T02:27:28.936Z,97278.38
2023-01-17T02:30:20.935Z,97262.91
2023-01-17T02:32:52.659Z,97265.38
2023-01-17T02:35:36.934Z,97265.44
2023-01-17T02:38:18.857Z,97257.81
2023-01-17T02:40:47.534Z,97255.19
2023-01-17T02:43:16.296Z,97255.09
2023-01-17T02:45:43.730Z,97265.47
2023-01-17T02:48:12.382Z,97261.22
2023-01-17T02:50:49.636Z,97264.59
2023-01-17T02:53:35.158Z,97259.44
2023-01-17T02:56:26.783Z,97250.84
2023-01-17T02:59:05.841Z,97243.16
2023-01-17T03:02:03.001Z,97237.22
2023-01-17T03:04:48.816Z,97234.69
2023-01-17T03:07:19.761Z,97220.09
2023-01-17T03:09:49.062Z,97228.66
2023-01-17T03:12:15.995Z,97238.00
2023-01-17T03:14:42.992Z,97225.16
2023-01-17T03:17:09.894Z,97224.28
2023-01-17T03:19:36.965Z,97221.69
2023-01-17T03:22:03.921Z,97214.03
2023-01-17T03:24:30.956Z,97212.19
2023-01-17T03:26:57.938Z,97209.59
2023-01-17T03:29:24.899Z,97215.56
2023-01-17T03:31:51.774Z,97201.88
2023-01-17T03:34:18.754Z,97199.19
2023-01-17T03:36:45.682Z,97187.28
2023-01-17T03:39:12.736Z,97186.44
2023-01-17T03:41:39.871Z,97188.13
2023-01-17T03:44:06.844Z,97185.56
2023-01-17T03:46:33.917Z,97169.25
2023-01-17T03:49:00.779Z,97175.22
2023-01-17T03:51:27.956Z,97159.81
2023-01-17T03:53:54.855Z,97164.06
2023-01-17T03:56:21.987Z,97159.81
2023-01-17T03:58:49.112Z,97156.28
2023-01-17T04:01:16.247Z,97152.09
2023-01-17T04:03:43.235Z,97151.16
2023-01-17T04:06:10.233Z,97149.47
2023-01-17T04:08:37.079Z,97149.47
2023-01-17T04:11:04.371Z,97141.75
2023-01-17T04:13:31.280Z,97145.16
2023-01-17T04:15:59.604Z,97141.75
2023-01-17T04:18:26.648Z,97134.88
2023-01-17T04:20:53.731Z,97124.59
2023-01-17T04:23:20.655Z,97112.53
2023-01-17T04:25:47.784Z,97109.06
2023-01-17T04:28:14.879Z,97102.25
2023-01-17T04:30:41.847Z,97100.53
2023-01-17T04:33:08.763Z,97091.97
2023-01-17T04:35:36.174Z,97103.94
2023-01-17T04:38:03.567Z,97103.03
2023-01-17T04:40:30.506Z,97104.75
2023-01-17T04:42:58.184Z,97101.38
2023-01-17T04:45:25.356Z,97101.31
2023-01-17T04:47:52.243Z,97097.00
2023-01-17T04:50:19.381Z,97087.50
2023-01-17T04:52:46.391Z,97084.16
2023-01-17T04:55:13.394Z,97082.38
2023-01-17T04:57:40.273Z,97078.16
2023-01-17T05:00:10.575Z,97090.97
2023-01-17T05:02:37.762Z,97082.41
2023-01-17T05:05:05.278Z,97078.94
2023-01-17T05:07:32.846Z,97090.13
2023-01-17T05:10:01.043Z,97079.78
2023-01-17T05:12:28.436Z,97075.47
2023-01-17T05:14:55.631Z,97075.53
2023-01-17T05:17:22.731Z,97072.13
2023-01-17T05:19:49.911Z,97066.91
2023-01-17T05:22:17.012Z,97062.63
2023-01-17T05:24:45.099Z,97057.50
2023-01-17T05:27:13.080Z,97059.28
2023-01-17T05:29:40.381Z,97059.28
2023-01-17T05:32:07.442Z,97061.78
2023-01-17T05:34:35.232Z,97062.63
2023-01-17T05:37:02.275Z,97053.19
2023-01-17T05:39:31.111Z,97047.22
2023-01-17T05:41:59.633Z,97039.47
2023-01-17T05:44:27.830Z,97029.19
2023-01-17T05:46:55.834Z,97053.19
2023-01-17T05:49:22.938Z,97059.09
2023-01-17T05:51:50.117Z,97055.66
2023-01-17T05:54:17.517Z,97051.41
2023-01-17T05:56:44.818Z,97062.50
2023-01-17T05:59:14.098Z,97048.81
2023-01-17T06:01:41.342Z,97051.41
2023-01-17T06:04:08.425Z,97043.63
2023-01-17T06:06:35.474Z,97050.50
2023-01-17T06:09:02.493Z,97035.97
2023-01-17T06:11:29.445Z,97050.56
2023-01-17T06:13:56.389Z,97053.06
2023-01-17T06:16:23.409Z,97053.06
2023-01-17T06:18:51.296Z,97035.97
2023-01-17T06:21:18.689Z,97041.09
2023-01-17T06:23:45.599Z,97041.09
2023-01-17T06:26:12.562Z,97038.53
2023-01-17T06:28:39.439Z,97042.78
2023-01-17T06:31:09.684Z,97046.19
2023-01-17T06:33:36.772Z,97045.28
2023-01-17T06:36:03.987Z,97047.06
2023-01-17T06:38:31.317Z,97047.03
2023-01-17T06:41:00.489Z,97052.13
2023-01-17T06:43:32.622Z,97043.56
2023-01-17T06:46:00.901Z,97049.50
2023-01-17T06:48:28.204Z,97056.34
2023-01-17T06:50:55.242Z,97052.00
2023-01-17T06:53:22.339Z,97050.22
2023-01-17T06:55:49.349Z,97038.25
2023-01-17T06:58:16.435Z,97052.78
2023-01-17T07:00:44.194Z,97042.44
2023-01-17T07:03:19.028Z,97039.84
2023-01-17T07:05:46.191Z,97049.31
2023-01-17T07:08:13.213Z,97047.56
2023-01-17T07:10:40.298Z,97050.09
2023-01-17T07:13:07.254Z,97056.91
2023-01-17T07:15:34.330Z,97039.75
2023-01-17T07:18:02.274Z,97034.66
2023-01-17T07:20:29.416Z,97038.00
2023-01-17T07:22:56.457Z,97038.88
2023-01-17T07:25:23.543Z,97039.72
2023-01-17T07:27:53.950Z,97043.97
2023-01-17T07:30:21.774Z,97044.78
2023-01-17T07:32:53.364Z,97045.66
2023-01-17T07:35:20.540Z,97047.28
2023-01-17T07:37:49.414Z,97047.28
2023-01-17T07:40:17.713Z,97036.97
2023-01-17T07:42:45.101Z,97036.88
2023-01-17T07:45:13.844Z,97024.97
2023-01-17T07:47:40.875Z,97014.63
2023-01-17T07:50:09.603Z,97017.25
2023-01-17T07:52:36.761Z,97015.47
2023-01-17T07:55:04.890Z,97005.16
2023-01-17T07:57:32.884Z,97010.31
2023-01-17T08:00:00.081Z,97015.44
2023-01-17T08:02:27.166Z,97020.47
2023-01-17T08:04:54.236Z,97016.22
2023-01-17T08:07:21.303Z,97019.69
2023-01-17T08:09:50.263Z,97013.59
2023-01-17T08:12:17.983Z,97009.41
2023-01-17T08:14:45.206Z,97014.44
2023-01-17T08:17:14.809Z,97007.53
2023-01-17T08:19:41.915Z,97005.75
2023-01-17T08:22:09.315Z,97015.06
2023-01-17T08:24:37.697Z,97013.34
2023-01-17T08:27:04.751Z,97016.69
2023-01-17T08:29:31.794Z,97019.13
2023-01-17T08:31:58.756Z,97012.97
2023-01-17T08:34:26.521Z,97016.31
2023-01-17T08:36:54.382Z,97015.41
2023-01-17T08:39:22.223Z,97013.66
2023-01-17T08:41:49.321Z,97006.72
2023-01-17T08:44:16.432Z,97009.16
2023-01-17T08:46:44.353Z,97018.50
2023-01-17T08:49:12.261Z,97014.13
2023-01-17T08:51:40.067Z,97007.16
2023-01-17T08:54:07.415Z,97008.91
2023-01-17T08:56:35.359Z,97005.44
2023-01-17T08:59:03.276Z,97008.81
2023-01-17T09:01:30.869Z,97013.97
2023-01-17T09:03:57.862Z,97023.38
2023-01-17T09:06:24.879Z,97023.38
2023-01-17T09:08:52.464Z,97024.16
2023-01-17T09:11:19.579Z,97022.34
2023-01-17T09:13:46.527Z,97027.44
2023-01-17T09:16:13.662Z,97030.91
2023-01-17T09:18:40.842Z,97029.09
2023-01-17T09:21:12.831Z,97032.50
2023-01-17T09:23:40.014Z,97032.44
2023-01-17T09:26:07.312Z,97036.69
2023-01-17T09:28:41.007Z,97032.38
2023-01-17T09:31:08.731Z,97028.97
2023-01-17T09:33:36.253Z,97031.50
2023-01-17T09:36:05.551Z,97035.78
2023-01-17T09:38:33.143Z,97028.78
2023-01-17T09:41:01.811Z,97022.59
2023-01-17T09:43:41.087Z,97017.34
2023-01-17T09:46:15.204Z,97021.56
2023-01-17T09:48:43.433Z,97017.22
2023-01-17T09:51:16.312Z,97019.03
2023-01-17T09:53:44.375Z,97024.25
2023-01-17T09:56:16.561Z,97031.84
2023-01-17T09:59:03.973Z,97027.50
2023-01-17T10:01:41.082Z,97028.44
2023-01-17T10:04:24.529Z,97033.44
2023-01-17T10:07:20.116Z,97039.28
2023-01-17T10:09:56.505Z,97031.50
2023-01-17T10:12:59.474Z,97032.31
2023-01-17T10:16:08.476Z,97037.47
2023-01-17T10:18:38.272Z,97034.78
2023-01-17T10:21:23.633Z,97034.69
2023-01-17T10:24:13.871Z,97047.59
2023-01-17T10:26:42.090Z,97042.44
2023-01-17T10:29:15.134Z,97037.50
2023-01-17T10:31:51.193Z,97040.84
2023-01-17T10:34:42.084Z,97047.72
2023-01-17T10:37:21.595Z,97039.03
2023-01-17T10:39:50.045Z,97036.47
2023-01-17T10:42:17.013Z,97033.84
2023-01-17T10:44:49.731Z,97039.84
2023-01-17T10:47:24.514Z,97048.34
2023-01-17T10:49:56.678Z,97042.44
2023-01-17T10:53:01.271Z,97048.41
2023-01-17T10:55:44.159Z,97047.47
2023-01-17T10:58:14.336Z,97048.28
2023-01-17T11:00:47.016Z,97047.31
2023-01-17T11:03:17.228Z,97043.13
2023-01-17T11:05:44.470Z,97037.00
2023-01-17T11:08:13.659Z,97030.13
2023-01-17T11:10:46.613Z,97029.22
2023-01-17T11:13:22.611Z,97031.78
2023-01-17T11:15:52.344Z,97036.81
2023-01-17T11:18:21.578Z,97027.41
2023-01-17T11:20:49.638Z,97028.22
2023-01-17T11:23:17.859Z,97029.81
2023-01-17T11:25:50.672Z,97025.56
2023-01-17T11:28:30.824Z,97019.59
2023-01-17T11:31:04.392Z,97016.03
2023-01-17T11:33:47.030Z,97017.78
2023-01-17T11:36:22.243Z,97016.84
2023-01-17T11:39:27.920Z,97023.03
2023-01-17T11:41:54.968Z,97021.41
2023-01-17T11:44:33.897Z,97017.22
2023-01-17T11:47:12.759Z,97011.94
2023-01-17T11:49:45.371Z,97016.31
2023-01-17T11:52:24.390Z,97014.50
2023-01-17T11:54:53.996Z,97009.28
2023-01-17T11:57:31.734Z,97011.19
2023-01-17T12:00:29.632Z,97005.09
2023-01-17T12:03:15.429Z,97006.00
2023-01-17T12:05:42.517Z,97013.63
2023-01-17T12:08:28.252Z,97020.56
2023-01-17T12:11:22.294Z,97019.78
2023-01-17T12:14:07.758Z,97021.31
2023-01-17T12:17:12.233Z,97027.34
2023-01-17T12:20:04.946Z,97029.97
2023-01-17T12:22:50.771Z,97032.66
2023-01-17T12:26:02.714Z,97034.28
2023-01-17T12:28:32.632Z,97035.03
2023-01-17T12:31:27.152Z,97041.97
2023-01-17T12:33:59.612Z,97036.78
2023-01-17T12:36:40.814Z,97042.78
2023-01-17T12:39:12.022Z,97040.19
2023-01-17T12:42:04.410Z,97036.78
2023-01-17T12:45:03.026Z,97040.28
2023-01-17T12:47:33.492Z,97037.81
2023-01-17T12:50:21.773Z,97049.25
2023-01-17T12:53:07.670Z,97049.13
2023-01-17T12:55:50.043Z,97045.69
2023-01-17T12:58:31.291Z,97052.63
2023-01-17T13:01:24.034Z,97055.25
2023-01-17T13:04:09.572Z,97061.19
2023-01-17T13:07:10.793Z,97061.19
2023-01-17T13:09:46.082Z,97062.72
2023-01-17T13:12:15.714Z,97065.41
2023-01-17T13:14:42.815Z,97058.53
2023-01-17T13:17:48.396Z,97078.16
2023-01-17T13:20:32.058Z,97088.50
2023-01-17T13:23:13.012Z,97094.50
2023-01-17T13:25:50.715Z,97092.84
2023-01-17T13:28:42.109Z,97110.91
2023-01-17T13:31:52.481Z,97108.19
2023-01-17T13:34:35.059Z,97116.03
2023-01-17T13:37:20.513Z,97120.16
2023-01-17T13:40:09.305Z,97114.22
2023-01-17T13:42:42.314Z,97123.56
2023-01-17T13:45:18.756Z,97121.13
2023-01-17T13:47:45.890Z,97121.97
2023-01-17T13:50:31.332Z,97125.44
2023-01-17T13:53:05.963Z,97127.09
2023-01-17T13:55:47.862Z,97135.81
2023-01-17T13:58:27.526Z,97136.38
2023-01-17T14:00:55.179Z,97143.28
2023-01-17T14:03:51.755Z,97145.16
2023-01-17T14:06:40.719Z,97149.47
2023-01-17T14:09:26.674Z,97149.53
2023-01-17T14:12:19.632Z,97150.31
2023-01-17T14:14:52.497Z,97147.88
2023-01-17T14:17:23.200Z,97146.91
2023-01-17T14:19:52.717Z,97146.91
2023-01-17T14:22:19.700Z,97158.06
2023-01-17T14:25:11.838Z,97158.94
2023-01-17T14:27:45.350Z,97151.94
2023-01-17T14:30:22.516Z,97156.38
2023-01-17T14:33:01.682Z,97166.88
2023-01-17T14:35:32.421Z,97171.38
2023-01-17T14:38:05.489Z,97172.13
2023-01-17T14:40:35.041Z,97178.16
2023-01-17T14:43:44.228Z,97185.03
2023-01-17T14:46:32.451Z,97178.13
2023-01-17T14:49:06.277Z,97188.47
2023-01-17T14:51:35.576Z,97186.72
2023-01-17T14:54:08.633Z,97188.47
2023-01-17T14:56:35.896Z,97189.16
2023-01-17T14:59:22.221Z,97194.44
2023-01-17T15:02:06.598Z,97195.28
2023-01-17T15:04:39.747Z,97203.78
2023-01-17T15:07:07.964Z,97218.34
2023-01-17T15:09:37.258Z,97218.34
2023-01-17T15:12:05.150Z,97220.09
2023-01-17T15:14:38.819Z,97225.25
2023-01-17T15:17:26.763Z,97226.06
2023-01-17T15:20:01.891Z,97245.00
2023-01-17T15:22:29.910Z,97246.09
2023-01-17T15:24:57.073Z,97247.88
2023-01-17T15:27:25.148Z,97250.44
2023-01-17T15:29:52.497Z,97248.66
2023-01-17T15:32:22.838Z,97255.56
2023-01-17T15:34:51.874Z,97252.16
2023-01-17T15:37:39.190Z,97256.63
2023-01-17T15:40:12.455Z,97260.97
2023-01-17T15:42:42.933Z,97263.75
2023-01-17T15:45:17.215Z,97264.56
2023-01-17T15:47:44.348Z,97274.78
2023-01-17T15:50:30.372Z,97278.31
2023-01-17T15:53:03.109Z,97283.47
2023-01-17T15:55:36.695Z,97271.38
2023-01-17T15:58:05.411Z,97270.53
2023-01-17T16:00:42.123Z,97286.00
2023-01-17T16:03:32.032Z,97287.69
2023-01-17T16:06:01.241Z,97291.16
2023-01-17T16:08:29.540Z,97283.59
2023-01-17T16:11:02.328Z,97290.34
2023-01-17T16:13:31.669Z,97294.78
2023-01-17T16:16:24.015Z,97298.16
2023-01-17T16:18:58.125Z,97299.16
2023-01-17T16:21:27.619Z,97301.75
2023-01-17T16:23:54.927Z,97298.28
2023-01-17T16:26:22.493Z,97308.63
2023-01-17T16:28:49.811Z,97316.19
2023-01-17T16:31:18.183Z,97312.69
2023-01-17T16:33:46.222Z,97329.91
2023-01-17T16:36:15.255Z,97325.59
2023-01-17T16:38:44.237Z,97322.22
2023-01-17T16:41:11.386Z,97327.38
2023-01-17T16:43:38.704Z,97334.31
2023-01-17T16:46:06.187Z,97337.00
2023-01-17T16:48:33.331Z,97337.13
2023-01-17T16:51:06.080Z,97339.75
2023-01-17T16:53:33.122Z,97338.00
2023-01-17T16:56:07.236Z,97343.09
2023-01-17T16:58:34.203Z,97349.09
2023-01-17T17:01:01.212Z,97351.69
2023-01-17T17:03:28.331Z,97352.56
2023-01-17T17:05:57.331Z,97352.53
2023-01-17T17:08:24.467Z,97371.25
2023-01-17T17:10:51.482Z,97369.44
2023-01-17T17:13:18.544Z,97375.34
2023-01-17T17:15:45.590Z,97383.03
2023-01-17T17:18:18.072Z,97384.75
2023-01-17T17:20:45.521Z,97391.53
2023-01-17T17:23:12.681Z,97390.81
2023-01-17T17:25:39.755Z,97397.81
2023-01-17T17:28:06.950Z,97406.44
2023-01-17T17:30:34.719Z,97406.59
2023-01-17T17:33:04.612Z,97421.16
2023-01-17T17:35:34.527Z,97426.41
2023-01-17T17:38:01.555Z,97416.16
2023-01-17T17:40:29.699Z,97423.25
2023-01-17T17:42:56.670Z,97437.16
2023-01-17T17:45:23.722Z,97435.63
2023-01-17T17:47:54.544Z,97442.66
2023-01-17T17:50:21.792Z,97441.97
2023-01-17T17:52:48.746Z,97442.81
2023-01-17T17:55:19.122Z,97441.31
2023-01-17T17:57:46.415Z,97437.16
2023-01-17T18:00:13.784Z,97435.72
2023-01-17T18:02:40.740Z,97444.31
2023-01-17T18:05:08.317Z,97449.50
2023-01-17T18:07:35.511Z,97449.47
2023-01-17T18:10:03.818Z,97456.28
2023-01-17T18:12:30.725Z,97452.97
2023-01-17T18:14:57.635Z,97452.22
2023-01-17T18:17:24.635Z,97458.34
2023-01-17T18:19:52.801Z,97456.81
2023-01-17T18:22:19.998Z,97457.81
2023-01-17T18:24:46.855Z,97461.44
2023-01-17T18:27:14.133Z,97464.97
2023-01-17T18:29:41.170Z,97468.41
2023-01-17T18:32:08.240Z,97465.84
2023-01-17T18:34:35.976Z,97473.44
2023-01-17T18:37:03.153Z,97474.19
2023-01-17T18:39:30.627Z,97468.22
2023-01-17T18:42:01.415Z,97472.50
2023-01-17T18:44:29.990Z,97471.72
2023-01-17T18:47:04.738Z,97472.72
2023-01-17T18:49:33.793Z,97474.53
2023-01-17T18:52:01.733Z,97486.66
2023-01-17T18:54:30.111Z,97485.84
2023-01-17T18:56:58.313Z,97490.84
2023-01-17T18:59:26.335Z,97499.22
2023-01-17T19:01:53.782Z,97496.44
2023-01-17T19:04:24.467Z,97508.34
2023-01-17T19:06:55.292Z,97510.75
2023-01-17T19:09:23.010Z,97509.84
2023-01-17T19:11:51.378Z,97514.97
2023-01-17T19:14:18.492Z,97520.91
2023-01-17T19:16:45.689Z,97524.28
2023-01-17T19:19:14.853Z,97525.97
2023-01-17T19:21:42.360Z,97536.19
2023-01-17T19:24:10.843Z,97532.72
2023-01-17T19:26:38.118Z,97543.81
2023-01-17T19:29:06.912Z,97544.72
2023-01-17T19:31:39.739Z,97546.41
2023-01-17T19:34:06.876Z,97551.66
2023-01-17T19:36:35.669Z,97563.00
2023-01-17T19:39:06.202Z,97570.00
2023-01-17T19:41:35.403Z,97575.09
2023-01-17T19:44:07.321Z,97581.88
2023-01-17T19:46:35.387Z,97579.19
2023-01-17T19:49:03.196Z,97589.41
2023-01-17T19:51:31.084Z,97597.09
2023-01-17T19:54:04.369Z,97595.34
2023-01-17T19:56:32.151Z,97601.25
2023-01-17T19:59:02.088Z,97597.81
2023-01-17T20:01:34.529Z,97598.66
2023-01-17T20:04:02.853Z,97602.09
2023-01-17T20:06:32.504Z,97605.56
2023-01-17T20:09:00.103Z,97602.94
2023-01-17T20:11:28.954Z,97609.88
2023-01-17T20:13:57.855Z,97604.97
2023-01-17T20:16:28.459Z,97613.75
2023-01-17T20:18:56.207Z,97612.19
2023-01-17T20:21:26.193Z,97606.41
2023-01-17T20:23:54.721Z,97613.38
2023-01-17T20:26:42.359Z,97618.69
2023-01-17T20:29:17.451Z,97623.09
2023-01-17T20:31:47.074Z,97630.06
2023-01-17T20:34:19.824Z,97635.28
2023-01-17T20:36:48.215Z,97644.75
2023-01-17T20:39:16.093Z,97647.34
2023-01-17T20:41:44.022Z,97653.38
2023-01-17T20:44:14.903Z,97661.94
2023-01-17T20:46:42.235Z,97664.53
2023-01-17T20:49:18.907Z,97662.84
2023-01-17T20:51:47.747Z,97677.44
2023-01-17T20:54:18.025Z,97682.66
2023-01-17T20:56:47.670Z,97692.09
2023-01-17T20:59:17.931Z,97694.72
2023-01-17T21:01:46.084Z,97700.75
2023-01-17T21:04:16.263Z,97701.69
2023-01-17T21:06:44.476Z,97706.03
2023-01-17T21:09:14.443Z,97711.28
2023-01-17T21:11:41.648Z,97710.44
2023-01-17T21:14:08.772Z,97713.94
2023-01-17T21:16:35.915Z,97721.72
2023-01-17T21:19:03.533Z,97725.16
2023-01-17T21:21:30.588Z,97727.69
2023-01-17T21:23:59.420Z,97736.19
2023-01-17T21:26:27.919Z,97737.81
2023-01-17T21:28:55.894Z,97749.66
2023-01-17T21:31:35.727Z,97748.00
2023-01-17T21:34:05.053Z,97757.44
2023-01-17T21:36:35.360Z,97752.38
2023-01-17T21:39:05.078Z,97749.78
2023-01-17T21:41:34.777Z,97748.06
2023-01-17T21:44:04.182Z,97744.59
2023-01-17T21:46:31.401Z,97748.84
2023-01-17T21:48:58.372Z,97743.69
2023-01-17T21:51:46.094Z,97735.94
2023-01-17T21:54:13.053Z,97734.22
2023-01-17T21:56:58.669Z,97735.00
2023-01-17T21:59:25.739Z,97735.00
2023-01-17T22:01:52.702Z,97734.22
2023-01-17T22:04:20.274Z,97740.34
2023-01-17T22:06:47.436Z,97744.72
2023-01-17T22:09:15.298Z,97743.09
2023-01-17T22:11:42.407Z,97737.22
2023-01-17T22:14:09.599Z,97745.81
2023-01-17T22:16:36.616Z,97743.31
2023-01-17T22:19:03.653Z,97741.66
2023-01-17T22:21:30.834Z,97740.00
2023-01-17T22:23:59.602Z,97734.09
2023-01-17T22:26:29.235Z,97735.84
2023-01-17T22:28:56.670Z,97732.47
2023-01-17T22:31:26.428Z,97735.94
2023-01-17T22:34:04.391Z,97745.34
2023-01-17T22:36:34.760Z,97741.97
2023-01-17T22:39:01.941Z,97748.00
2023-01-17T22:41:30.198Z,97743.78
2023-01-17T22:43:58.984Z,97750.66
2023-01-17T22:46:27.679Z,97760.13
2023-01-17T22:48:55.967Z,97759.31
2023-01-17T22:51:24.812Z,97771.31
2023-01-17T22:53:54.173Z,97770.50
2023-01-17T22:56:31.598Z,97776.50
2023-01-17T22:59:00.975Z,97772.22
2023-01-17T23:01:30.727Z,97774.84
2023-01-17T23:03:59.631Z,97778.25
2023-01-17T23:06:37.563Z,97780.84
2023-01-17T23:09:15.710Z,97776.59
2023-01-17T23:11:49.897Z,97776.63
2023-01-17T23:14:22.241Z,97783.47
2023-01-17T23:17:21.937Z,97790.28
2023-01-17T23:19:51.237Z,97799.69
2023-01-17T23:22:27.229Z,97796.25
2023-01-17T23:24:55.631Z,97812.50
2023-01-17T23:28:01.707Z,97809.94
2023-01-17T23:30:39.325Z,97822.72
2023-01-17T23:33:08.974Z,97821.00
2023-01-17T23:35:42.203Z,97819.31
2023-01-17T23:38:35.451Z,97824.47
2023-01-17T23:41:25.904Z,97831.28
2023-01-17T23:43:54.835Z,97836.44
2023-01-17T23:46:22.728Z,97845.00
2023-01-17T23:48:49.849Z,97849.28
2023-01-17T23:51:17.242Z,97852.72
2023-01-17T23:53:44.294Z,97860.38
2023-01-17T23:56:17.294Z,97856.13
2023-01-17T23:58:44.492Z,97860.38
